createdAt,value
2023-05-01T00:00:31.858Z,2.65
2023-05-01T00:03:14.561Z,2.63
2023-05-01T00:05:42.391Z,2.64
2023-05-01T00:08:10.873Z,2.68
2023-05-01T00:10:38.993Z,2.70
2023-05-01T00:13:06.715Z,2.69
2023-05-01T00:15:34.384Z,2.67
2023-05-01T00:18:02.085Z,2.64
2023-05-01T00:20:29.883Z,2.61
2023-05-01T00:22:58.084Z,2.56
2023-05-01T00:25:25.794Z,2.52
2023-05-01T00:27:53.515Z,2.46
2023-05-01T00:30:21.153Z,2.41
2023-05-01T00:32:48.793Z,2.36
2023-05-01T00:35:16.639Z,2.33
2023-05-01T00:37:44.224Z,2.29
2023-05-01T00:40:15.462Z,2.26
2023-05-01T00:42:43.127Z,2.27
2023-05-01T00:45:11.150Z,2.30
2023-05-01T00:47:38.893Z,2.33
2023-05-01T00:50:07.327Z,2.33
2023-05-01T00:52:34.948Z,2.31
2023-05-01T00:55:02.641Z,2.28
2023-05-01T00:57:30.569Z,2.25
2023-05-01T00:59:58.456Z,2.22
2023-05-01T01:02:27.330Z,2.18
2023-05-01T01:04:55.238Z,2.13
2023-05-01T01:07:40.287Z,2.08
2023-05-01T01:10:34.280Z,2.02
2023-05-01T01:13:20.844Z,1.97
2023-05-01T01:15:58.329Z,1.91
2023-05-01T01:18:40.477Z,1.86
2023-05-01T01:21:38.929Z,1.82
2023-05-01T01:24:42.260Z,1.84
2023-05-01T01:27:36.084Z,1.87
2023-05-01T01:30:22.643Z,1.88
2023-05-01T01:33:09.342Z,1.87
2023-05-01T01:35:37.019Z,1.84
2023-05-01T01:38:11.566Z,1.82
2023-05-01T01:40:43.071Z,1.78
2023-05-01T01:43:13.563Z,1.75
2023-05-01T01:45:42.271Z,1.71
2023-05-01T01:48:12.277Z,1.68
2023-05-01T01:50:39.886Z,1.64
2023-05-01T01:53:07.504Z,1.60
2023-05-01T01:55:35.224Z,1.56
2023-05-01T01:58:03.263Z,1.53
2023-05-01T02:00:30.865Z,1.55
2023-05-01T02:02:59.386Z,1.60
2023-05-01T02:05:27.098Z,1.64
2023-05-01T02:07:54.667Z,1.67
2023-05-01T02:10:22.875Z,1.67
2023-05-01T02:12:51.657Z,1.66
2023-05-01T02:15:19.419Z,1.63
2023-05-01T02:17:47.072Z,1.59
2023-05-01T02:20:15.382Z,1.55
2023-05-01T02:22:43.665Z,1.51
2023-05-01T02:25:12.637Z,1.45
2023-05-01T02:28:02.870Z,1.39
2023-05-01T02:30:30.555Z,1.35
2023-05-01T02:32:58.176Z,1.30
2023-05-01T02:35:26.331Z,1.26
2023-05-01T02:37:53.967Z,1.25
2023-05-01T02:40:22.007Z,1.27
2023-05-01T02:42:49.641Z,1.33
2023-05-01T02:45:21.532Z,1.37
2023-05-01T02:47:52.071Z,1.39
2023-05-01T02:50:19.925Z,1.39
2023-05-01T02:52:47.574Z,1.37
2023-05-01T02:55:15.553Z,1.34
2023-05-01T02:57:43.310Z,1.31
2023-05-01T03:00:13.995Z,1.29
2023-05-01T03:02:42.399Z,1.25
2023-05-01T03:05:10.105Z,1.20
2023-05-01T03:07:37.718Z,1.14
2023-05-01T03:10:07.888Z,1.11
2023-05-01T03:12:35.498Z,1.10
2023-05-01T03:15:03.582Z,1.13
2023-05-01T03:17:31.473Z,1.18
2023-05-01T03:19:59.198Z,1.21
2023-05-01T03:22:29.590Z,1.22
2023-05-01T03:24:57.248Z,1.20
2023-05-01T03:27:24.876Z,1.18
2023-05-01T03:29:52.912Z,1.14
2023-05-01T03:32:20.673Z,1.12
2023-05-01T03:34:48.482Z,1.11
2023-05-01T03:37:16.299Z,1.07
2023-05-01T03:39:43.903Z,1.04
2023-05-01T03:42:11.478Z,1.02
2023-05-01T03:44:39.119Z,0.99
2023-05-01T03:47:06.712Z,0.99
2023-05-01T03:49:34.307Z,1.02
2023-05-01T03:52:01.934Z,1.08
2023-05-01T03:54:29.542Z,1.14
2023-05-01T03:56:57.157Z,1.18
2023-05-01T03:59:25.085Z,1.19
2023-05-01T04:01:53.026Z,1.18
2023-05-01T04:04:20.848Z,1.18
2023-05-01T04:06:51.959Z,1.17
2023-05-01T04:09:19.743Z,1.18
2023-05-01T04:11:47.476Z,1.18
2023-05-01T04:14:15.069Z,1.19
2023-05-01T04:16:43.377Z,1.20
2023-05-01T04:19:10.964Z,1.22
2023-05-01T04:21:38.955Z,1.26
2023-05-01T04:24:06.640Z,1.34
2023-05-01T04:26:34.279Z,1.45
2023-05-01T04:29:01.913Z,1.55
2023-05-01T04:31:29.624Z,1.65
2023-05-01T04:33:58.589Z,1.73
2023-05-01T04:36:26.211Z,1.81
2023-05-01T04:38:53.782Z,1.87
2023-05-01T04:41:21.769Z,1.92
2023-05-01T04:43:49.484Z,1.96
2023-05-01T04:46:17.183Z,2.00
2023-05-01T04:48:44.892Z,2.04
2023-05-01T04:51:12.754Z,2.09
2023-05-01T04:53:40.379Z,2.19
2023-05-01T04:56:08.026Z,2.31
2023-05-01T04:58:35.647Z,2.45
2023-05-01T05:01:03.361Z,2.57
2023-05-01T05:03:31.058Z,2.69
2023-05-01T05:05:58.996Z,2.81
2023-05-01T05:08:26.689Z,2.91
2023-05-01T05:11:00.800Z,3.00
2023-05-01T05:13:28.399Z,3.11
2023-05-01T05:15:56.387Z,3.22
2023-05-01T05:18:24.326Z,3.31
2023-05-01T05:20:52.128Z,3.44
2023-05-01T05:23:19.729Z,3.62
2023-05-01T05:25:47.456Z,3.83
2023-05-01T05:28:15.119Z,4.03
2023-05-01T05:30:43.399Z,4.22
2023-05-01T05:33:11.470Z,4.46
2023-05-01T05:35:39.193Z,4.67
2023-05-01T05:38:06.845Z,4.85
2023-05-01T05:40:34.467Z,4.99
2023-05-01T05:43:02.119Z,5.12
2023-05-01T05:45:29.686Z,5.22
2023-05-01T05:47:57.464Z,5.34
2023-05-01T05:50:25.253Z,5.47
2023-05-01T05:52:52.941Z,5.61
2023-05-01T05:55:20.695Z,5.73
2023-05-01T05:57:48.411Z,5.86
2023-05-01T06:00:17.324Z,6.00
2023-05-01T06:02:45.273Z,6.18
2023-05-01T06:05:13.680Z,6.39
2023-05-01T06:07:41.424Z,6.57
2023-05-01T06:10:09.757Z,6.76
2023-05-01T06:12:40.387Z,6.96
2023-05-01T06:15:16.838Z,7.10
2023-05-01T06:17:44.537Z,7.22
2023-05-01T06:20:14.427Z,7.32
2023-05-01T06:22:42.130Z,7.42
2023-05-01T06:25:10.115Z,7.50
2023-05-01T06:27:37.724Z,7.58
2023-05-01T06:30:05.948Z,7.68
2023-05-01T06:32:33.617Z,7.78
2023-05-01T06:35:01.292Z,7.85
2023-05-01T06:37:29.715Z,7.94
2023-05-01T06:39:57.570Z,8.01
2023-05-01T06:42:25.699Z,8.09
2023-05-01T06:44:53.303Z,8.18
2023-05-01T06:47:21.501Z,8.27
2023-05-01T06:49:49.334Z,8.35
2023-05-01T06:52:16.917Z,8.43
2023-05-01T06:54:44.508Z,8.50
2023-05-01T06:57:12.122Z,8.58
2023-05-01T06:59:40.234Z,8.66
2023-05-01T07:02:08.071Z,8.75
2023-05-01T07:04:35.871Z,8.83
2023-05-01T07:07:03.528Z,8.91
2023-05-01T07:09:31.408Z,8.99
2023-05-01T07:11:59.077Z,9.08
2023-05-01T07:14:26.681Z,9.16
2023-05-01T07:16:54.381Z,9.21
2023-05-01T07:19:22.015Z,9.28
2023-05-01T07:21:49.648Z,9.36
2023-05-01T07:24:17.314Z,9.44
2023-05-01T07:26:44.906Z,9.54
2023-05-01T07:29:13.342Z,9.61
2023-05-01T07:31:41.876Z,9.68
2023-05-01T07:34:09.640Z,9.76
2023-05-01T07:36:37.669Z,9.83
2023-05-01T07:39:06.690Z,9.93
2023-05-01T07:41:34.413Z,10.03
2023-05-01T07:44:02.307Z,10.12
2023-05-01T07:46:30.380Z,10.22
2023-05-01T07:49:00.976Z,10.31
2023-05-01T07:51:28.555Z,10.39
2023-05-01T07:53:56.151Z,10.46
2023-05-01T07:56:23.818Z,10.51
2023-05-01T07:58:51.448Z,10.59
2023-05-01T08:01:19.119Z,10.68
2023-05-01T08:03:48.688Z,10.78
2023-05-01T08:06:18.093Z,10.89
2023-05-01T08:08:45.959Z,10.97
2023-05-01T08:11:14.031Z,11.07
2023-05-01T08:13:41.640Z,11.17
2023-05-01T08:16:09.364Z,11.29
2023-05-01T08:18:38.492Z,11.40
2023-05-01T08:21:08.780Z,11.53
2023-05-01T08:23:36.658Z,11.61
2023-05-01T08:26:04.433Z,11.71
2023-05-01T08:28:34.503Z,11.82
2023-05-01T08:31:03.862Z,11.91
2023-05-01T08:33:31.550Z,11.98
2023-05-01T08:35:59.405Z,12.05
2023-05-01T08:38:27.038Z,12.14
2023-05-01T08:40:56.723Z,12.22
2023-05-01T08:43:25.332Z,12.30
2023-05-01T08:45:52.890Z,12.42
2023-05-01T08:48:20.655Z,12.54
2023-05-01T08:50:48.351Z,12.64
2023-05-01T08:53:16.444Z,12.74
2023-05-01T08:55:46.114Z,12.85
2023-05-01T08:58:13.920Z,12.99
2023-05-01T09:00:42.084Z,13.09
2023-05-01T09:03:11.791Z,13.20
2023-05-01T09:05:39.652Z,13.29
2023-05-01T09:08:07.298Z,13.38
2023-05-01T09:10:36.118Z,13.52
2023-05-01T09:13:07.005Z,13.65
2023-05-01T09:15:34.802Z,13.77
2023-05-01T09:18:03.782Z,13.88
2023-05-01T09:20:32.042Z,14.00
2023-05-01T09:23:00.021Z,14.13
2023-05-01T09:25:28.230Z,14.26
2023-05-01T09:27:57.266Z,14.37
2023-05-01T09:30:31.667Z,14.48
2023-05-01T09:33:12.068Z,14.59
2023-05-01T09:35:56.112Z,14.70
2023-05-01T09:38:24.967Z,14.79
2023-05-01T09:41:03.421Z,14.85
2023-05-01T09:43:31.915Z,14.94
2023-05-01T09:46:05.480Z,15.04
2023-05-01T09:48:35.809Z,15.17
2023-05-01T09:51:22.690Z,15.28
2023-05-01T09:53:50.490Z,15.41
2023-05-01T09:56:18.907Z,15.53
2023-05-01T09:58:47.241Z,15.67
2023-05-01T10:01:15.356Z,15.91
2023-05-01T10:03:44.513Z,16.30
2023-05-01T10:06:12.319Z,16.79
2023-05-01T10:08:47.676Z,17.23
2023-05-01T10:11:15.410Z,17.67
2023-05-01T10:13:42.998Z,18.06
2023-05-01T10:16:43.322Z,18.38
2023-05-01T10:19:11.247Z,18.69
2023-05-01T10:21:38.886Z,18.96
2023-05-01T10:24:07.950Z,19.24
2023-05-01T10:26:36.474Z,19.50
2023-05-01T10:29:04.307Z,19.71
2023-05-01T10:31:33.455Z,19.92
2023-05-01T10:34:03.772Z,20.07
2023-05-01T10:36:34.501Z,20.12
2023-05-01T10:39:02.135Z,20.21
2023-05-01T10:41:58.204Z,20.31
2023-05-01T10:44:27.269Z,20.49
2023-05-01T10:46:55.216Z,20.59
2023-05-01T10:49:23.221Z,20.76
2023-05-01T10:51:57.887Z,20.91
2023-05-01T10:54:26.992Z,21.05
2023-05-01T10:56:56.165Z,21.17
2023-05-01T10:59:23.873Z,21.33
2023-05-01T11:01:52.307Z,21.45
2023-05-01T11:04:22.808Z,21.52
2023-05-01T11:07:07.558Z,21.58
2023-05-01T11:09:51.338Z,21.59
2023-05-01T11:12:48.392Z,21.59
2023-05-01T11:15:32.562Z,21.63
2023-05-01T11:18:01.533Z,21.69
2023-05-01T11:20:29.264Z,21.73
2023-05-01T11:22:57.334Z,21.79
2023-05-01T11:25:27.713Z,21.89
2023-05-01T11:27:57.087Z,21.98
2023-05-01T11:30:24.708Z,22.10
2023-05-01T11:32:52.567Z,22.22
2023-05-01T11:35:24.180Z,22.37
2023-05-01T11:37:51.810Z,22.49
2023-05-01T11:40:20.281Z,22.60
2023-05-01T11:42:48.890Z,22.70
2023-05-01T11:45:19.800Z,22.76
2023-05-01T11:47:47.528Z,22.84
2023-05-01T11:50:15.555Z,22.97
2023-05-01T11:52:49.397Z,23.02
2023-05-01T11:55:16.980Z,23.07
2023-05-01T11:57:54.374Z,23.18
2023-05-01T12:00:38.248Z,23.28
2023-05-01T12:03:06.718Z,23.40
2023-05-01T12:05:38.652Z,23.49
2023-05-01T12:08:09.977Z,23.67
2023-05-01T12:10:38.433Z,23.87
2023-05-01T12:13:06.908Z,24.06
2023-05-01T12:15:36.217Z,24.29
2023-05-01T12:18:05.094Z,24.49
2023-05-01T12:20:40.389Z,24.64
2023-05-01T12:23:10.609Z,24.77
2023-05-01T12:25:39.554Z,24.95
2023-05-01T12:28:20.439Z,25.12
2023-05-01T12:30:49.125Z,25.31
2023-05-01T12:33:18.934Z,25.48
2023-05-01T12:35:47.938Z,25.57
2023-05-01T12:38:17.074Z,25.68
2023-05-01T12:40:55.187Z,25.83
2023-05-01T12:43:29.498Z,26.03
2023-05-01T12:45:57.147Z,26.22
2023-05-01T12:48:24.990Z,26.31
2023-05-01T12:50:55.249Z,26.42
2023-05-01T12:53:23.938Z,26.40
2023-05-01T12:55:53.230Z,26.45
2023-05-01T12:58:21.167Z,26.53
2023-05-01T13:00:49.900Z,26.65
2023-05-01T13:03:23.832Z,26.75
2023-05-01T13:06:02.330Z,26.82
2023-05-01T13:08:31.675Z,26.86
2023-05-01T13:11:01.185Z,26.94
2023-05-01T13:13:34.763Z,27.07
2023-05-01T13:16:10.510Z,27.22
2023-05-01T13:18:48.664Z,27.33
2023-05-01T13:21:18.542Z,27.43
2023-05-01T13:23:54.277Z,27.40
2023-05-01T13:26:33.012Z,27.40
2023-05-01T13:29:01.913Z,27.51
2023-05-01T13:31:30.129Z,27.47
2023-05-01T13:33:58.868Z,27.49
2023-05-01T13:36:27.555Z,27.53
2023-05-01T13:38:56.463Z,27.62
2023-05-01T13:41:26.221Z,27.76
2023-05-01T13:43:55.147Z,27.83
2023-05-01T13:46:23.493Z,27.83
2023-05-01T13:48:51.382Z,27.87
2023-05-01T13:51:24.806Z,27.79
2023-05-01T13:53:55.201Z,27.75
2023-05-01T13:56:22.948Z,27.74
2023-05-01T13:58:50.919Z,27.74
2023-05-01T14:01:23.603Z,27.76
2023-05-01T14:03:51.460Z,27.83
2023-05-01T14:06:20.194Z,27.91
2023-05-01T14:08:48.587Z,27.93
2023-05-01T14:11:16.869Z,28.07
2023-05-01T14:13:45.616Z,28.24
2023-05-01T14:16:33.544Z,28.33
2023-05-01T14:19:01.284Z,28.29
2023-05-01T14:21:29.125Z,28.18
2023-05-01T14:23:57.265Z,28.14
2023-05-01T14:26:25.109Z,28.11
2023-05-01T14:28:53.021Z,27.99
2023-05-01T14:31:27.530Z,27.88
2023-05-01T14:34:00.369Z,27.91
2023-05-01T14:36:31.099Z,28.01
2023-05-01T14:38:59.793Z,28.17
2023-05-01T14:41:27.588Z,28.35
2023-05-01T14:43:55.532Z,28.45
2023-05-01T14:46:31.139Z,28.49
2023-05-01T14:48:59.981Z,28.58
2023-05-01T14:51:28.611Z,28.63
2023-05-01T14:53:56.364Z,28.59
2023-05-01T14:56:24.113Z,28.60
2023-05-01T14:58:51.778Z,28.64
2023-05-01T15:01:19.873Z,28.64
2023-05-01T15:03:47.845Z,28.65
2023-05-01T15:06:15.786Z,28.71
2023-05-01T15:08:43.469Z,28.59
2023-05-01T15:11:13.986Z,28.36
2023-05-01T15:13:42.743Z,28.08
2023-05-01T15:16:11.146Z,27.70
2023-05-01T15:18:39.123Z,27.42
2023-05-01T15:21:07.102Z,27.31
2023-05-01T15:23:34.688Z,27.34
2023-05-01T15:26:02.304Z,27.41
2023-05-01T15:28:30.261Z,27.35
2023-05-01T15:30:57.990Z,27.29
2023-05-01T15:33:25.739Z,27.27
2023-05-01T15:35:53.570Z,27.21
2023-05-01T15:38:21.668Z,27.15
2023-05-01T15:40:50.131Z,26.98
2023-05-01T15:43:17.889Z,26.80
2023-05-01T15:45:45.800Z,26.63
2023-05-01T15:48:13.559Z,26.53
2023-05-01T15:50:41.365Z,26.46
2023-05-01T15:53:08.982Z,26.35
2023-05-01T15:55:36.784Z,26.19
2023-05-01T15:58:04.796Z,26.08
2023-05-01T16:00:32.876Z,25.95
2023-05-01T16:03:01.588Z,25.79
2023-05-01T16:05:29.520Z,25.61
2023-05-01T16:08:00.024Z,25.38
2023-05-01T16:10:27.943Z,25.12
2023-05-01T16:12:55.624Z,24.86
2023-05-01T16:15:23.253Z,24.67
2023-05-01T16:17:54.932Z,24.43
2023-05-01T16:20:22.855Z,24.23
2023-05-01T16:22:51.334Z,24.01
2023-05-01T16:25:19.051Z,23.77
2023-05-01T16:27:47.430Z,23.53
2023-05-01T16:30:15.064Z,23.43
2023-05-01T16:32:43.442Z,23.35
2023-05-01T16:35:17.968Z,23.31
2023-05-01T16:37:45.924Z,23.31
2023-05-01T16:40:17.362Z,23.33
2023-05-01T16:42:54.731Z,23.26
2023-05-01T16:45:22.457Z,23.14
2023-05-01T16:47:50.109Z,22.95
2023-05-01T16:50:17.747Z,22.78
2023-05-01T16:52:45.359Z,22.65
2023-05-01T16:55:13.167Z,22.46
2023-05-01T16:57:43.653Z,22.30
2023-05-01T17:00:14.024Z,22.14
2023-05-01T17:02:41.629Z,21.92
2023-05-01T17:05:09.744Z,21.74
2023-05-01T17:07:37.348Z,21.57
2023-05-01T17:10:05.898Z,21.40
2023-05-01T17:12:33.468Z,21.24
2023-05-01T17:15:01.091Z,21.09
2023-05-01T17:17:28.764Z,20.91
2023-05-01T17:19:56.495Z,20.75
2023-05-01T17:22:24.313Z,20.60
2023-05-01T17:24:51.942Z,20.43
2023-05-01T17:27:19.524Z,20.25
2023-05-01T17:29:47.179Z,20.09
2023-05-01T17:32:20.352Z,19.97
2023-05-01T17:35:01.277Z,19.82
2023-05-01T17:37:29.028Z,19.68
2023-05-01T17:39:56.841Z,19.51
2023-05-01T17:42:24.780Z,19.33
2023-05-01T17:44:52.431Z,19.16
2023-05-01T17:47:20.271Z,19.01
2023-05-01T17:49:47.907Z,18.85
2023-05-01T17:52:15.527Z,18.67
2023-05-01T17:54:43.110Z,18.48
2023-05-01T17:57:10.925Z,18.30
2023-05-01T17:59:38.705Z,18.15
2023-05-01T18:02:06.361Z,18.01
2023-05-01T18:04:36.129Z,17.86
2023-05-01T18:07:04.505Z,17.70
2023-05-01T18:09:32.150Z,17.56
2023-05-01T18:11:59.718Z,17.42
2023-05-01T18:14:28.177Z,17.29
2023-05-01T18:16:56.097Z,17.16
2023-05-01T18:19:23.730Z,17.04
2023-05-01T18:21:51.369Z,16.92
2023-05-01T18:24:18.985Z,16.79
2023-05-01T18:26:46.586Z,16.68
2023-05-01T18:29:14.243Z,16.58
2023-05-01T18:31:41.979Z,16.48
2023-05-01T18:34:11.905Z,16.38
2023-05-01T18:36:39.508Z,16.28
2023-05-01T18:39:07.133Z,16.18
2023-05-01T18:41:34.806Z,16.08
2023-05-01T18:44:04.024Z,15.99
2023-05-01T18:46:31.813Z,15.90
2023-05-01T18:48:59.956Z,15.82
2023-05-01T18:51:27.689Z,15.72
2023-05-01T18:53:55.294Z,15.63
2023-05-01T18:56:24.355Z,15.56
2023-05-01T18:58:51.957Z,15.47
2023-05-01T19:01:20.793Z,15.38
2023-05-01T19:03:48.671Z,15.30
2023-05-01T19:06:16.330Z,15.21
2023-05-01T19:08:44.008Z,15.12
2023-05-01T19:11:11.768Z,15.03
2023-05-01T19:13:39.440Z,14.93
2023-05-01T19:16:07.184Z,14.85
2023-05-01T19:18:37.489Z,14.74
2023-05-01T19:21:05.712Z,14.63
2023-05-01T19:23:35.525Z,14.52
2023-05-01T19:26:04.776Z,14.41
2023-05-01T19:28:34.218Z,14.31
2023-05-01T19:31:04.441Z,14.22
2023-05-01T19:33:35.435Z,14.11
2023-05-01T19:36:05.228Z,14.02
2023-05-01T19:38:37.311Z,13.92
2023-05-01T19:41:07.195Z,13.83
2023-05-01T19:43:36.604Z,13.74
2023-05-01T19:46:10.683Z,13.64
2023-05-01T19:48:40.807Z,13.55
2023-05-01T19:51:08.447Z,13.45
2023-05-01T19:53:36.336Z,13.36
2023-05-01T19:56:09.814Z,13.27
2023-05-01T19:58:38.963Z,13.18
2023-05-01T20:01:09.385Z,13.07
2023-05-01T20:03:37.107Z,12.99
2023-05-01T20:06:06.560Z,12.89
2023-05-01T20:08:34.851Z,12.79
2023-05-01T20:11:02.480Z,12.71
2023-05-01T20:13:30.534Z,12.62
2023-05-01T20:15:58.248Z,12.54
2023-05-01T20:18:25.964Z,12.48
2023-05-01T20:20:53.640Z,12.44
2023-05-01T20:23:23.468Z,12.40
2023-05-01T20:25:53.880Z,12.37
2023-05-01T20:28:21.521Z,12.33
2023-05-01T20:30:49.351Z,12.28
2023-05-01T20:33:17.763Z,12.25
2023-05-01T20:35:46.065Z,12.22
2023-05-01T20:38:13.845Z,12.21
2023-05-01T20:40:42.271Z,12.21
2023-05-01T20:43:09.897Z,12.22
2023-05-01T20:45:37.699Z,12.22
2023-05-01T20:48:05.612Z,12.22
2023-05-01T20:50:33.394Z,12.21
2023-05-01T20:53:01.002Z,12.20
2023-05-01T20:55:29.932Z,12.19
2023-05-01T20:57:57.559Z,12.18
2023-05-01T21:00:25.356Z,12.17
2023-05-01T21:02:53.196Z,12.16
2023-05-01T21:05:21.021Z,12.15
2023-05-01T21:07:48.777Z,12.13
2023-05-01T21:10:16.706Z,12.11
2023-05-01T21:12:44.355Z,12.10
2023-05-01T21:15:12.100Z,12.08
2023-05-01T21:17:40.150Z,12.07
2023-05-01T21:20:12.882Z,12.05
2023-05-01T21:22:41.458Z,12.01
2023-05-01T21:25:09.508Z,11.99
2023-05-01T21:27:39.741Z,11.96
2023-05-01T21:30:08.693Z,11.93
2023-05-01T21:32:40.287Z,11.90
2023-05-01T21:35:09.922Z,11.89
2023-05-01T21:37:37.707Z,11.87
2023-05-01T21:40:06.484Z,11.86
2023-05-01T21:42:40.010Z,11.86
2023-05-01T21:45:08.909Z,11.84
2023-05-01T21:47:45.652Z,11.81
2023-05-01T21:50:18.609Z,11.79
2023-05-01T21:52:48.047Z,11.77
2023-05-01T21:55:25.606Z,11.75
2023-05-01T21:57:53.462Z,11.73
2023-05-01T22:00:21.259Z,11.72
2023-05-01T22:02:49.877Z,11.70
2023-05-01T22:05:19.313Z,11.68
2023-05-01T22:07:47.388Z,11.65
2023-05-01T22:10:18.620Z,11.62
2023-05-01T22:12:46.947Z,11.59
2023-05-01T22:15:15.635Z,11.57
2023-05-01T22:17:43.890Z,11.56
2023-05-01T22:20:11.856Z,11.55
2023-05-01T22:22:40.314Z,11.54
2023-05-01T22:25:08.511Z,11.53
2023-05-01T22:27:36.430Z,11.52
2023-05-01T22:30:04.757Z,11.50
2023-05-01T22:32:32.537Z,11.49
2023-05-01T22:35:00.371Z,11.49
2023-05-01T22:37:28.044Z,11.49
2023-05-01T22:39:55.634Z,11.47
2023-05-01T22:42:23.422Z,11.46
2023-05-01T22:44:51.034Z,11.45
2023-05-01T22:47:18.674Z,11.43
2023-05-01T22:49:46.325Z,11.42
2023-05-01T22:52:13.896Z,11.40
2023-05-01T22:54:41.497Z,11.39
2023-05-01T22:57:10.359Z,11.37
2023-05-01T22:59:39.685Z,11.36
2023-05-01T23:02:07.329Z,11.33
2023-05-01T23:04:35.047Z,11.30
2023-05-01T23:07:02.774Z,11.27
2023-05-01T23:09:32.214Z,11.25
2023-05-01T23:12:00.031Z,11.21
2023-05-01T23:14:27.673Z,11.19
2023-05-01T23:16:55.294Z,11.16
2023-05-01T23:19:23.850Z,11.13
2023-05-01T23:22:04.088Z,11.09
2023-05-01T23:24:44.696Z,11.05
2023-05-01T23:27:13.550Z,11.02
2023-05-01T23:29:41.517Z,10.99
2023-05-01T23:32:10.833Z,10.96
2023-05-01T23:34:38.792Z,10.92
2023-05-01T23:37:06.937Z,10.89
2023-05-01T23:39:34.552Z,10.86
2023-05-01T23:42:02.571Z,10.83
2023-05-01T23:44:30.467Z,10.81
2023-05-01T23:46:58.207Z,10.77
2023-05-01T23:49:25.815Z,10.74
2023-05-01T23:51:53.460Z,10.71
2023-05-01T23:54:21.056Z,10.69
2023-05-01T23:56:48.645Z,10.67
2023-05-01T23:59:16.634Z,10.64
